West Cressona, Pennsylvania
Current Conditions -  °F | °C
As of 4:54 PM on Monday 20 Oct 2014 (Local Time) from KRDG Reporting Station
Clear Clear  
Wind Chill: 59°   Ceiling: Unl
Heat Index: 59°   Visibility: 10mi
Dew Point: 41°   Wind: 10mph
Humidity: 51%   Direction: 190°S
Pressure: 29.95"   Gusts: 17mph
Location:  40.6285°N, 76.199°W
Report Text: KRDG 202054Z AUTO 19009G15KT 10SM CLR 15/05 A2995 RMK AO2 SLP149 T01500050 56015
Loading
Personal Weather Stations






























Interactive Weather Map
Tropical Storm Tracking
New forecast layout! Learn more

10-Day Weather Forecast

Advertisements
Track Severe Weather on mobile